sensor_id;sensor_type;location;lat;lon;timestamp;temperature;humidity
49184;DHT22;35021;49.214;12.270;2023-06-10T00:00:29;22.40;52.60
49184;DHT22;35021;49.214;12.270;2023-06-10T00:02:58;22.40;52.60
49184;DHT22;35021;49.214;12.270;2023-06-10T00:05:26;22.40;52.60
49184;DHT22;35021;49.214;12.270;2023-06-10T00:07:56;22.40;52.70
49184;DHT22;35021;49.214;12.270;2023-06-10T00:10:24;22.40;52.60
49184;DHT22;35021;49.214;12.270;2023-06-10T00:12:51;22.40;52.60
49184;DHT22;35021;49.214;12.270;2023-06-10T00:15:19;22.40;52.50
49184;DHT22;35021;49.214;12.270;2023-06-10T00:17:47;22.40;52.50
49184;DHT22;35021;49.214;12.270;2023-06-10T00:20:14;22.40;52.50
49184;DHT22;35021;49.214;12.270;2023-06-10T00:22:41;22.40;52.50
49184;DHT22;35021;49.214;12.270;2023-06-10T00:25:12;22.40;52.40
49184;DHT22;35021;49.214;12.270;2023-06-10T00:27:40;22.40;52.40
49184;DHT22;35021;49.214;12.270;2023-06-10T00:30:07;22.40;52.40
49184;DHT22;35021;49.214;12.270;2023-06-10T00:32:35;22.40;52.40
49184;DHT22;35021;49.214;12.270;2023-06-10T00:35:04;22.40;52.40
49184;DHT22;35021;49.214;12.270;2023-06-10T00:37:31;22.40;52.40
49184;DHT22;35021;49.214;12.270;2023-06-10T00:39:58;22.40;52.40
49184;DHT22;35021;49.214;12.270;2023-06-10T00:42:26;22.40;52.40
49184;DHT22;35021;49.214;12.270;2023-06-10T00:44:54;22.40;52.40
49184;DHT22;35021;49.214;12.270;2023-06-10T00:47:21;22.40;52.40
49184;DHT22;35021;49.214;12.270;2023-06-10T00:49:49;22.40;52.40
49184;DHT22;35021;49.214;12.270;2023-06-10T00:52:18;22.40;52.40
49184;DHT22;35021;49.214;12.270;2023-06-10T00:54:46;22.40;52.40
49184;DHT22;35021;49.214;12.270;2023-06-10T00:57:13;22.40;52.50
49184;DHT22;35021;49.214;12.270;2023-06-10T00:59:48;22.40;52.40
49184;DHT22;35021;49.214;12.270;2023-06-10T01:02:15;22.40;52.50
49184;DHT22;35021;49.214;12.270;2023-06-10T01:04:42;22.40;52.50
49184;DHT22;35021;49.214;12.270;2023-06-10T01:10:33;22.40;52.50
49184;DHT22;35021;49.214;12.270;2023-06-10T01:13:06;22.40;52.50
49184;DHT22;35021;49.214;12.270;2023-06-10T01:15:36;22.40;52.50
49184;DHT22;35021;49.214;12.270;2023-06-10T01:18:05;22.40;52.50
49184;DHT22;35021;49.214;12.270;2023-06-10T01:20:37;22.40;52.50
49184;DHT22;35021;49.214;12.270;2023-06-10T01:23:07;22.40;52.50
49184;DHT22;35021;49.214;12.270;2023-06-10T01:25:38;22.40;52.50
49184;DHT22;35021;49.214;12.270;2023-06-10T01:28:27;22.40;52.50
49184;DHT22;35021;49.214;12.270;2023-06-10T01:31:16;22.40;52.40
49184;DHT22;35021;49.214;12.270;2023-06-10T01:33:51;22.40;52.40
49184;DHT22;35021;49.214;12.270;2023-06-10T01:36:22;22.40;52.30
49184;DHT22;35021;49.214;12.270;2023-06-10T01:38:50;22.40;52.30
49184;DHT22;35021;49.214;12.270;2023-06-10T01:41:18;22.40;52.30
49184;DHT22;35021;49.214;12.270;2023-06-10T01:43:48;22.40;52.20
49184;DHT22;35021;49.214;12.270;2023-06-10T01:46:15;22.40;52.20
49184;DHT22;35021;49.214;12.270;2023-06-10T01:48:46;22.40;52.20
49184;DHT22;35021;49.214;12.270;2023-06-10T01:51:13;22.30;52.10
49184;DHT22;35021;49.214;12.270;2023-06-10T01:53:40;22.40;52.20
49184;DHT22;35021;49.214;12.270;2023-06-10T01:56:07;22.40;52.10
49184;DHT22;35021;49.214;12.270;2023-06-10T01:58:34;22.40;52.10
49184;DHT22;35021;49.214;12.270;2023-06-10T02:01:01;22.30;51.90
49184;DHT22;35021;49.214;12.270;2023-06-10T02:03:28;22.30;51.90
49184;DHT22;35021;49.214;12.270;2023-06-10T02:05:55;22.30;51.90
49184;DHT22;35021;49.214;12.270;2023-06-10T02:08:22;22.30;51.90
49184;DHT22;35021;49.214;12.270;2023-06-10T02:10:49;22.30;51.90
49184;DHT22;35021;49.214;12.270;2023-06-10T02:13:16;22.30;51.80
49184;DHT22;35021;49.214;12.270;2023-06-10T02:15:43;22.30;51.80
49184;DHT22;35021;49.214;12.270;2023-06-10T02:18:10;22.30;51.90
49184;DHT22;35021;49.214;12.270;2023-06-10T02:20:38;22.30;51.90
49184;DHT22;35021;49.214;12.270;2023-06-10T02:23:05;22.30;51.80
49184;DHT22;35021;49.214;12.270;2023-06-10T02:25:32;22.30;51.80
49184;DHT22;35021;49.214;12.270;2023-06-10T02:27:59;22.30;51.80
49184;DHT22;35021;49.214;12.270;2023-06-10T02:30:28;22.30;51.80
49184;DHT22;35021;49.214;12.270;2023-06-10T02:32:55;22.30;51.80
49184;DHT22;35021;49.214;12.270;2023-06-10T02:35:24;22.30;51.90
49184;DHT22;35021;49.214;12.270;2023-06-10T02:37:51;22.30;51.80
49184;DHT22;35021;49.214;12.270;2023-06-10T02:40:18;22.30;51.80
49184;DHT22;35021;49.214;12.270;2023-06-10T02:42:45;22.30;51.70
49184;DHT22;35021;49.214;12.270;2023-06-10T02:45:12;22.30;51.70
49184;DHT22;35021;49.214;12.270;2023-06-10T02:47:39;22.30;51.70
49184;DHT22;35021;49.214;12.270;2023-06-10T02:50:07;22.30;51.60
49184;DHT22;35021;49.214;12.270;2023-06-10T02:52:34;22.30;51.60
49184;DHT22;35021;49.214;12.270;2023-06-10T02:55:01;22.30;51.60
49184;DHT22;35021;49.214;12.270;2023-06-10T02:57:28;22.20;51.50
49184;DHT22;35021;49.214;12.270;2023-06-10T02:59:55;22.20;51.50
49184;DHT22;35021;49.214;12.270;2023-06-10T03:02:22;22.20;51.60
49184;DHT22;35021;49.214;12.270;2023-06-10T03:04:55;22.10;51.60
49184;DHT22;35021;49.214;12.270;2023-06-10T03:07:22;22.10;51.60
49184;DHT22;35021;49.214;12.270;2023-06-10T03:09:50;22.10;51.70
49184;DHT22;35021;49.214;12.270;2023-06-10T03:12:17;22.10;51.70
49184;DHT22;35021;49.214;12.270;2023-06-10T03:14:44;22.00;51.70
49184;DHT22;35021;49.214;12.270;2023-06-10T03:17:11;22.00;51.70
49184;DHT22;35021;49.214;12.270;2023-06-10T03:19:38;22.00;51.70
49184;DHT22;35021;49.214;12.270;2023-06-10T03:22:14;22.00;51.70
49184;DHT22;35021;49.214;12.270;2023-06-10T03:24:41;22.00;51.80
49184;DHT22;35021;49.214;12.270;2023-06-10T03:27:12;22.00;51.70
49184;DHT22;35021;49.214;12.270;2023-06-10T03:29:39;21.90;51.70
49184;DHT22;35021;49.214;12.270;2023-06-10T03:32:07;21.90;51.70
49184;DHT22;35021;49.214;12.270;2023-06-10T03:34:34;21.90;51.70
49184;DHT22;35021;49.214;12.270;2023-06-10T03:37:02;22.00;51.70
49184;DHT22;35021;49.214;12.270;2023-06-10T03:39:30;21.90;51.70
49184;DHT22;35021;49.214;12.270;2023-06-10T03:41:57;21.90;51.60
49184;DHT22;35021;49.214;12.270;2023-06-10T03:44:27;21.90;51.50
49184;DHT22;35021;49.214;12.270;2023-06-10T03:46:55;21.90;51.40
49184;DHT22;35021;49.214;12.270;2023-06-10T03:49:22;21.90;51.50
49184;DHT22;35021;49.214;12.270;2023-06-10T03:51:53;21.90;51.50
49184;DHT22;35021;49.214;12.270;2023-06-10T03:54:20;21.90;51.40
49184;DHT22;35021;49.214;12.270;2023-06-10T03:56:47;21.90;51.40
49184;DHT22;35021;49.214;12.270;2023-06-10T03:59:15;21.90;51.40
49184;DHT22;35021;49.214;12.270;2023-06-10T04:01:42;22.00;51.50
49184;DHT22;35021;49.214;12.270;2023-06-10T04:04:13;22.00;51.50
49184;DHT22;35021;49.214;12.270;2023-06-10T04:06:41;22.00;51.50
49184;DHT22;35021;49.214;12.270;2023-06-10T04:09:10;22.00;51.50
49184;DHT22;35021;49.214;12.270;2023-06-10T04:11:37;22.00;51.60
49184;DHT22;35021;49.214;12.270;2023-06-10T04:14:04;22.00;51.60
49184;DHT22;35021;49.214;12.270;2023-06-10T04:16:32;22.00;51.60
49184;DHT22;35021;49.214;12.270;2023-06-10T04:18:59;22.00;51.60
49184;DHT22;35021;49.214;12.270;2023-06-10T04:21:27;22.00;51.50
49184;DHT22;35021;49.214;12.270;2023-06-10T04:23:54;22.00;51.50
49184;DHT22;35021;49.214;12.270;2023-06-10T04:26:21;22.00;51.50
49184;DHT22;35021;49.214;12.270;2023-06-10T04:28:48;22.00;51.60
49184;DHT22;35021;49.214;12.270;2023-06-10T04:31:15;22.00;51.50
49184;DHT22;35021;49.214;12.270;2023-06-10T04:33:42;22.00;51.50
49184;DHT22;35021;49.214;12.270;2023-06-10T04:36:09;22.00;51.50
49184;DHT22;35021;49.214;12.270;2023-06-10T04:38:36;22.00;51.50
49184;DHT22;35021;49.214;12.270;2023-06-10T04:41:03;22.00;51.60
49184;DHT22;35021;49.214;12.270;2023-06-10T04:43:30;22.00;51.50
49184;DHT22;35021;49.214;12.270;2023-06-10T04:45:57;22.00;51.60
49184;DHT22;35021;49.214;12.270;2023-06-10T04:48:24;22.00;51.60
49184;DHT22;35021;49.214;12.270;2023-06-10T04:50:51;22.00;51.60
49184;DHT22;35021;49.214;12.270;2023-06-10T04:53:18;22.00;51.70
49184;DHT22;35021;49.214;12.270;2023-06-10T04:55:45;22.00;51.80
49184;DHT22;35021;49.214;12.270;2023-06-10T04:58:12;21.90;51.90
49184;DHT22;35021;49.214;12.270;2023-06-10T05:00:39;21.90;52.10
49184;DHT22;35021;49.214;12.270;2023-06-10T05:03:06;21.90;52.10
49184;DHT22;35021;49.214;12.270;2023-06-10T05:05:33;21.90;52.20
49184;DHT22;35021;49.214;12.270;2023-06-10T05:08:00;21.90;52.30
49184;DHT22;35021;49.214;12.270;2023-06-10T05:10:27;21.90;52.40
49184;DHT22;35021;49.214;12.270;2023-06-10T05:12:54;21.90;52.50
49184;DHT22;35021;49.214;12.270;2023-06-10T05:15:21;21.90;52.50
49184;DHT22;35021;49.214;12.270;2023-06-10T05:17:47;21.90;52.60
49184;DHT22;35021;49.214;12.270;2023-06-10T05:20:14;21.90;52.60
49184;DHT22;35021;49.214;12.270;2023-06-10T05:22:42;21.90;52.70
49184;DHT22;35021;49.214;12.270;2023-06-10T05:25:09;21.90;52.80
49184;DHT22;35021;49.214;12.270;2023-06-10T05:27:36;21.80;52.90
49184;DHT22;35021;49.214;12.270;2023-06-10T05:30:03;21.80;53.00
49184;DHT22;35021;49.214;12.270;2023-06-10T05:32:31;21.80;53.20
49184;DHT22;35021;49.214;12.270;2023-06-10T05:34:58;21.80;53.40
49184;DHT22;35021;49.214;12.270;2023-06-10T05:37:26;21.70;53.50
49184;DHT22;35021;49.214;12.270;2023-06-10T05:39:53;21.70;53.60
49184;DHT22;35021;49.214;12.270;2023-06-10T05:42:20;21.70;53.80
49184;DHT22;35021;49.214;12.270;2023-06-10T05:44:47;21.70;53.90
49184;DHT22;35021;49.214;12.270;2023-06-10T05:47:14;21.60;53.90
49184;DHT22;35021;49.214;12.270;2023-06-10T05:49:41;21.70;54.10
49184;DHT22;35021;49.214;12.270;2023-06-10T05:52:07;21.70;54.20
49184;DHT22;35021;49.214;12.270;2023-06-10T05:54:34;21.60;54.30
49184;DHT22;35021;49.214;12.270;2023-06-10T05:57:01;21.60;54.30
49184;DHT22;35021;49.214;12.270;2023-06-10T05:59:30;21.60;54.40
49184;DHT22;35021;49.214;12.270;2023-06-10T06:01:57;21.70;54.40
49184;DHT22;35021;49.214;12.270;2023-06-10T06:04:23;21.60;54.60
49184;DHT22;35021;49.214;12.270;2023-06-10T06:06:50;21.60;54.50
49184;DHT22;35021;49.214;12.270;2023-06-10T06:09:17;21.60;54.60
49184;DHT22;35021;49.214;12.270;2023-06-10T06:11:44;21.70;54.70
49184;DHT22;35021;49.214;12.270;2023-06-10T06:14:11;21.70;54.80
49184;DHT22;35021;49.214;12.270;2023-06-10T06:16:38;21.60;55.00
49184;DHT22;35021;49.214;12.270;2023-06-10T06:19:06;21.60;55.00
49184;DHT22;35021;49.214;12.270;2023-06-10T06:21:33;21.60;55.00
49184;DHT22;35021;49.214;12.270;2023-06-10T06:24:00;21.60;55.20
49184;DHT22;35021;49.214;12.270;2023-06-10T06:26:27;21.60;55.30
49184;DHT22;35021;49.214;12.270;2023-06-10T06:28:54;21.60;55.40
49184;DHT22;35021;49.214;12.270;2023-06-10T06:31:21;21.60;55.60
49184;DHT22;35021;49.214;12.270;2023-06-10T06:33:48;21.50;55.60
49184;DHT22;35021;49.214;12.270;2023-06-10T06:36:15;21.50;55.50
49184;DHT22;35021;49.214;12.270;2023-06-10T06:38:42;21.50;55.50
49184;DHT22;35021;49.214;12.270;2023-06-10T06:41:08;21.50;55.40
49184;DHT22;35021;49.214;12.270;2023-06-10T06:43:35;21.50;55.60
49184;DHT22;35021;49.214;12.270;2023-06-10T06:46:02;21.60;55.80
49184;DHT22;35021;49.214;12.270;2023-06-10T06:48:29;21.60;56.00
49184;DHT22;35021;49.214;12.270;2023-06-10T06:50:56;21.60;56.10
49184;DHT22;35021;49.214;12.270;2023-06-10T06:53:24;21.60;56.30
49184;DHT22;35021;49.214;12.270;2023-06-10T06:55:51;21.60;56.50
49184;DHT22;35021;49.214;12.270;2023-06-10T06:58:18;21.60;56.60
49184;DHT22;35021;49.214;12.270;2023-06-10T07:00:45;21.70;56.60
49184;DHT22;35021;49.214;12.270;2023-06-10T07:03:12;21.70;56.90
49184;DHT22;35021;49.214;12.270;2023-06-10T07:05:39;21.70;56.90
49184;DHT22;35021;49.214;12.270;2023-06-10T07:08:07;21.70;56.80
49184;DHT22;35021;49.214;12.270;2023-06-10T07:10:34;21.70;56.90
49184;DHT22;35021;49.214;12.270;2023-06-10T07:13:01;21.70;56.90
49184;DHT22;35021;49.214;12.270;2023-06-10T07:15:28;21.70;56.90
49184;DHT22;35021;49.214;12.270;2023-06-10T07:17:55;21.70;57.10
49184;DHT22;35021;49.214;12.270;2023-06-10T07:20:22;21.70;57.20
49184;DHT22;35021;49.214;12.270;2023-06-10T07:22:49;21.60;57.40
49184;DHT22;35021;49.214;12.270;2023-06-10T07:25:16;21.60;57.30
49184;DHT22;35021;49.214;12.270;2023-06-10T07:27:43;21.60;57.40
49184;DHT22;35021;49.214;12.270;2023-06-10T07:30:10;21.60;57.50
49184;DHT22;35021;49.214;12.270;2023-06-10T07:32:37;21.50;57.50
49184;DHT22;35021;49.214;12.270;2023-06-10T07:35:08;21.50;57.50
49184;DHT22;35021;49.214;12.270;2023-06-10T07:37:35;21.50;57.40
49184;DHT22;35021;49.214;12.270;2023-06-10T07:40:03;21.50;57.60
49184;DHT22;35021;49.214;12.270;2023-06-10T07:42:34;21.50;57.70
49184;DHT22;35021;49.214;12.270;2023-06-10T07:45:01;21.50;57.70
49184;DHT22;35021;49.214;12.270;2023-06-10T07:47:29;21.50;57.80
49184;DHT22;35021;49.214;12.270;2023-06-10T07:49:57;21.40;57.90
49184;DHT22;35021;49.214;12.270;2023-06-10T07:52:24;21.50;58.10
49184;DHT22;35021;49.214;12.270;2023-06-10T07:54:52;21.50;58.20
49184;DHT22;35021;49.214;12.270;2023-06-10T07:57:19;21.40;58.00
49184;DHT22;35021;49.214;12.270;2023-06-10T07:59:46;21.40;58.00
49184;DHT22;35021;49.214;12.270;2023-06-10T08:02:13;21.40;58.10
49184;DHT22;35021;49.214;12.270;2023-06-10T08:04:40;21.40;58.10
49184;DHT22;35021;49.214;12.270;2023-06-10T08:07:07;21.40;58.00
49184;DHT22;35021;49.214;12.270;2023-06-10T08:09:37;21.40;58.20
49184;DHT22;35021;49.214;12.270;2023-06-10T08:12:07;21.40;58.30
49184;DHT22;35021;49.214;12.270;2023-06-10T08:14:33;21.40;58.50
49184;DHT22;35021;49.214;12.270;2023-06-10T08:17:00;21.50;58.60
49184;DHT22;35021;49.214;12.270;2023-06-10T08:19:28;21.40;58.60
49184;DHT22;35021;49.214;12.270;2023-06-10T08:21:55;21.40;58.40
49184;DHT22;35021;49.214;12.270;2023-06-10T08:24:22;21.50;58.60
49184;DHT22;35021;49.214;12.270;2023-06-10T08:26:49;21.50;58.60
49184;DHT22;35021;49.214;12.270;2023-06-10T08:29:16;21.50;58.50
49184;DHT22;35021;49.214;12.270;2023-06-10T08:31:44;21.50;58.40
49184;DHT22;35021;49.214;12.270;2023-06-10T08:34:11;21.50;58.20
49184;DHT22;35021;49.214;12.270;2023-06-10T08:36:38;21.50;58.20
49184;DHT22;35021;49.214;12.270;2023-06-10T08:39:05;21.50;58.00
49184;DHT22;35021;49.214;12.270;2023-06-10T08:41:35;21.50;57.90
49184;DHT22;35021;49.214;12.270;2023-06-10T08:44:14;21.50;58.00
49184;DHT22;35021;49.214;12.270;2023-06-10T08:46:45;21.50;58.00
49184;DHT22;35021;49.214;12.270;2023-06-10T08:49:18;21.60;58.00
49184;DHT22;35021;49.214;12.270;2023-06-10T08:51:45;21.60;58.00
49184;DHT22;35021;49.214;12.270;2023-06-10T08:54:20;21.60;57.80
49184;DHT22;35021;49.214;12.270;2023-06-10T08:56:50;21.60;57.60
49184;DHT22;35021;49.214;12.270;2023-06-10T08:59:18;21.70;57.40
49184;DHT22;35021;49.214;12.270;2023-06-10T09:01:47;21.70;57.30
49184;DHT22;35021;49.214;12.270;2023-06-10T09:04:14;21.70;57.10
49184;DHT22;35021;49.214;12.270;2023-06-10T09:06:43;21.70;57.00
49184;DHT22;35021;49.214;12.270;2023-06-10T09:09:12;21.70;56.80
49184;DHT22;35021;49.214;12.270;2023-06-10T09:11:39;21.70;56.80
49184;DHT22;35021;49.214;12.270;2023-06-10T09:14:07;21.70;56.80
49184;DHT22;35021;49.214;12.270;2023-06-10T09:16:34;21.70;56.90
49184;DHT22;35021;49.214;12.270;2023-06-10T09:19:01;21.80;56.90
49184;DHT22;35021;49.214;12.270;2023-06-10T09:21:34;21.70;56.80
49184;DHT22;35021;49.214;12.270;2023-06-10T09:24:05;21.70;56.80
49184;DHT22;35021;49.214;12.270;2023-06-10T09:26:32;21.80;57.00
49184;DHT22;35021;49.214;12.270;2023-06-10T09:29:04;21.80;57.10
49184;DHT22;35021;49.214;12.270;2023-06-10T09:31:34;21.80;57.10
49184;DHT22;35021;49.214;12.270;2023-06-10T09:34:07;21.80;57.00
49184;DHT22;35021;49.214;12.270;2023-06-10T09:36:35;21.80;56.80
49184;DHT22;35021;49.214;12.270;2023-06-10T09:39:03;21.90;56.60
49184;DHT22;35021;49.214;12.270;2023-06-10T09:41:34;21.90;56.50
49184;DHT22;35021;49.214;12.270;2023-06-10T09:44:02;21.90;56.20
49184;DHT22;35021;49.214;12.270;2023-06-10T09:46:36;21.90;56.10
49184;DHT22;35021;49.214;12.270;2023-06-10T09:49:03;21.90;56.00
49184;DHT22;35021;49.214;12.270;2023-06-10T09:51:30;21.90;55.80
49184;DHT22;35021;49.214;12.270;2023-06-10T09:53:56;22.00;55.80
49184;DHT22;35021;49.214;12.270;2023-06-10T09:56:35;22.00;55.70
49184;DHT22;35021;49.214;12.270;2023-06-10T09:59:03;22.00;55.50
49184;DHT22;35021;49.214;12.270;2023-06-10T10:01:30;22.00;55.40
49184;DHT22;35021;49.214;12.270;2023-06-10T10:03:57;22.00;55.50
49184;DHT22;35021;49.214;12.270;2023-06-10T10:06:25;22.00;55.40
49184;DHT22;35021;49.214;12.270;2023-06-10T10:08:52;22.10;55.20
49184;DHT22;35021;49.214;12.270;2023-06-10T10:11:20;22.10;55.20
49184;DHT22;35021;49.214;12.270;2023-06-10T10:13:53;22.10;55.10
49184;DHT22;35021;49.214;12.270;2023-06-10T10:16:27;22.10;55.40
49184;DHT22;35021;49.214;12.270;2023-06-10T10:18:57;22.10;55.50
49184;DHT22;35021;49.214;12.270;2023-06-10T10:21:28;22.10;55.50
49184;DHT22;35021;49.214;12.270;2023-06-10T10:26:26;22.20;55.40
49184;DHT22;35021;49.214;12.270;2023-06-10T10:29:05;22.20;55.20
49184;DHT22;35021;49.214;12.270;2023-06-10T10:31:35;22.20;55.10
49184;DHT22;35021;49.214;12.270;2023-06-10T10:34:07;22.20;55.00
49184;DHT22;35021;49.214;12.270;2023-06-10T10:36:35;22.20;54.80
49184;DHT22;35021;49.214;12.270;2023-06-10T10:39:04;22.20;54.70
49184;DHT22;35021;49.214;12.270;2023-06-10T10:41:32;22.10;54.90
49184;DHT22;35021;49.214;12.270;2023-06-10T10:44:00;22.10;55.20
49184;DHT22;35021;49.214;12.270;2023-06-10T10:46:28;22.10;55.40
49184;DHT22;35021;49.214;12.270;2023-06-10T10:48:58;22.10;55.40
49184;DHT22;35021;49.214;12.270;2023-06-10T10:51:25;22.10;55.40
49184;DHT22;35021;49.214;12.270;2023-06-10T10:54:11;22.00;55.30
49184;DHT22;35021;49.214;12.270;2023-06-10T10:56:39;22.00;55.00
49184;DHT22;35021;49.214;12.270;2023-06-10T10:59:07;22.00;54.90
49184;DHT22;35021;49.214;12.270;2023-06-10T11:01:43;22.00;54.90
49184;DHT22;35021;49.214;12.270;2023-06-10T11:04:13;22.00;54.90
49184;DHT22;35021;49.214;12.270;2023-06-10T11:06:52;22.00;54.90
49184;DHT22;35021;49.214;12.270;2023-06-10T11:09:28;22.00;55.10
49184;DHT22;35021;49.214;12.270;2023-06-10T11:11:59;22.00;55.30
49184;DHT22;35021;49.214;12.270;2023-06-10T11:14:30;22.00;56.00
49184;DHT22;35021;49.214;12.270;2023-06-10T11:17:00;22.00;56.30
49184;DHT22;35021;49.214;12.270;2023-06-10T11:19:36;22.00;56.60
49184;DHT22;35021;49.214;12.270;2023-06-10T11:22:07;22.00;56.70
49184;DHT22;35021;49.214;12.270;2023-06-10T11:24:34;22.00;56.90
49184;DHT22;35021;49.214;12.270;2023-06-10T11:30:17;22.10;56.70
49184;DHT22;35021;49.214;12.270;2023-06-10T11:32:45;22.10;56.60
49184;DHT22;35021;49.214;12.270;2023-06-10T11:35:19;22.10;56.50
49184;DHT22;35021;49.214;12.270;2023-06-10T11:37:47;22.10;56.40
49184;DHT22;35021;49.214;12.270;2023-06-10T11:40:14;22.10;56.30
49184;DHT22;35021;49.214;12.270;2023-06-10T11:42:42;22.10;56.30
49184;DHT22;35021;49.214;12.270;2023-06-10T11:45:09;22.10;56.50
49184;DHT22;35021;49.214;12.270;2023-06-10T11:47:37;22.10;56.40
49184;DHT22;35021;49.214;12.270;2023-06-10T11:50:04;22.10;56.20
49184;DHT22;35021;49.214;12.270;2023-06-10T11:52:32;22.00;55.90
49184;DHT22;35021;49.214;12.270;2023-06-10T11:55:01;22.00;55.90
49184;DHT22;35021;49.214;12.270;2023-06-10T11:57:28;22.00;56.10
49184;DHT22;35021;49.214;12.270;2023-06-10T11:59:55;22.00;55.90
49184;DHT22;35021;49.214;12.270;2023-06-10T12:02:22;22.10;55.80
49184;DHT22;35021;49.214;12.270;2023-06-10T12:04:49;22.10;55.70
49184;DHT22;35021;49.214;12.270;2023-06-10T12:07:19;22.10;55.40
49184;DHT22;35021;49.214;12.270;2023-06-10T12:09:46;22.10;55.40
49184;DHT22;35021;49.214;12.270;2023-06-10T12:12:13;22.10;55.40
49184;DHT22;35021;49.214;12.270;2023-06-10T12:14:54;22.10;55.40
49184;DHT22;35021;49.214;12.270;2023-06-10T12:20:03;22.10;55.60
49184;DHT22;35021;49.214;12.270;2023-06-10T12:22:40;22.10;55.80
49184;DHT22;35021;49.214;12.270;2023-06-10T12:25:08;22.10;55.90
49184;DHT22;35021;49.214;12.270;2023-06-10T12:27:37;22.10;56.00
49184;DHT22;35021;49.214;12.270;2023-06-10T12:30:06;22.10;56.00
49184;DHT22;35021;49.214;12.270;2023-06-10T12:32:37;22.10;56.10
49184;DHT22;35021;49.214;12.270;2023-06-10T12:35:05;22.20;56.10
49184;DHT22;35021;49.214;12.270;2023-06-10T12:37:33;22.20;56.10
49184;DHT22;35021;49.214;12.270;2023-06-10T12:40:01;22.10;55.90
49184;DHT22;35021;49.214;12.270;2023-06-10T12:42:38;22.10;55.80
49184;DHT22;35021;49.214;12.270;2023-06-10T12:45:06;22.10;55.80
49184;DHT22;35021;49.214;12.270;2023-06-10T12:47:37;22.10;55.90
49184;DHT22;35021;49.214;12.270;2023-06-10T12:50:09;22.10;56.10
49184;DHT22;35021;49.214;12.270;2023-06-10T12:52:36;22.20;56.40
49184;DHT22;35021;49.214;12.270;2023-06-10T12:55:03;22.20;56.50
49184;DHT22;35021;49.214;12.270;2023-06-10T12:57:31;22.20;56.60
49184;DHT22;35021;49.214;12.270;2023-06-10T12:59:58;22.20;56.70
49184;DHT22;35021;49.214;12.270;2023-06-10T13:02:31;22.20;56.90
49184;DHT22;35021;49.214;12.270;2023-06-10T13:04:58;22.20;56.90
49184;DHT22;35021;49.214;12.270;2023-06-10T13:07:25;22.20;56.80
49184;DHT22;35021;49.214;12.270;2023-06-10T13:09:53;22.20;57.00
49184;DHT22;35021;49.214;12.270;2023-06-10T13:12:20;22.20;56.90
49184;DHT22;35021;49.214;12.270;2023-06-10T13:15:07;22.20;56.70
49184;DHT22;35021;49.214;12.270;2023-06-10T13:17:35;22.20;56.40
49184;DHT22;35021;49.214;12.270;2023-06-10T13:20:03;22.20;56.30
49184;DHT22;35021;49.214;12.270;2023-06-10T13:22:33;22.20;56.20
49184;DHT22;35021;49.214;12.270;2023-06-10T13:25:02;22.20;56.10
49184;DHT22;35021;49.214;12.270;2023-06-10T13:27:30;22.20;56.20
49184;DHT22;35021;49.214;12.270;2023-06-10T13:29:57;22.20;56.40
49184;DHT22;35021;49.214;12.270;2023-06-10T13:32:24;22.20;56.30
49184;DHT22;35021;49.214;12.270;2023-06-10T13:34:51;22.20;56.20
49184;DHT22;35021;49.214;12.270;2023-06-10T13:37:20;22.20;56.20
49184;DHT22;35021;49.214;12.270;2023-06-10T13:39:47;22.20;56.20
49184;DHT22;35021;49.214;12.270;2023-06-10T13:42:15;22.20;56.30
49184;DHT22;35021;49.214;12.270;2023-06-10T13:44:42;22.20;56.20
49184;DHT22;35021;49.214;12.270;2023-06-10T13:47:11;22.20;56.20
49184;DHT22;35021;49.214;12.270;2023-06-10T13:49:38;22.20;56.10
49184;DHT22;35021;49.214;12.270;2023-06-10T13:52:06;22.20;56.10
49184;DHT22;35021;49.214;12.270;2023-06-10T13:54:34;22.20;56.10
49184;DHT22;35021;49.214;12.270;2023-06-10T13:57:03;22.20;56.40
49184;DHT22;35021;49.214;12.270;2023-06-10T13:59:30;22.20;56.60
49184;DHT22;35021;49.214;12.270;2023-06-10T14:01:57;22.20;56.50
49184;DHT22;35021;49.214;12.270;2023-06-10T14:04:24;22.30;56.30
49184;DHT22;35021;49.214;12.270;2023-06-10T14:06:51;22.30;56.20
49184;DHT22;35021;49.214;12.270;2023-06-10T14:09:18;22.30;56.10
49184;DHT22;35021;49.214;12.270;2023-06-10T14:11:45;22.30;56.20
49184;DHT22;35021;49.214;12.270;2023-06-10T14:14:12;22.30;56.30
49184;DHT22;35021;49.214;12.270;2023-06-10T14:16:41;22.30;56.40
49184;DHT22;35021;49.214;12.270;2023-06-10T14:19:09;22.30;56.40
49184;DHT22;35021;49.214;12.270;2023-06-10T14:21:36;22.30;56.40
49184;DHT22;35021;49.214;12.270;2023-06-10T14:24:03;22.30;56.60
49184;DHT22;35021;49.214;12.270;2023-06-10T14:26:30;22.30;56.70
49184;DHT22;35021;49.214;12.270;2023-06-10T14:28:59;22.40;56.90
49184;DHT22;35021;49.214;12.270;2023-06-10T14:31:26;22.40;57.60
49184;DHT22;35021;49.214;12.270;2023-06-10T14:33:53;22.40;56.90
49184;DHT22;35021;49.214;12.270;2023-06-10T14:36:19;22.40;56.90
49184;DHT22;35021;49.214;12.270;2023-06-10T14:38:46;22.40;56.80
49184;DHT22;35021;49.214;12.270;2023-06-10T14:41:14;22.40;56.90
49184;DHT22;35021;49.214;12.270;2023-06-10T14:43:40;22.40;56.80
49184;DHT22;35021;49.214;12.270;2023-06-10T14:46:07;22.40;56.60
49184;DHT22;35021;49.214;12.270;2023-06-10T14:48:34;22.40;56.60
49184;DHT22;35021;49.214;12.270;2023-06-10T14:51:01;22.50;56.60
49184;DHT22;35021;49.214;12.270;2023-06-10T14:53:29;22.40;56.40
49184;DHT22;35021;49.214;12.270;2023-06-10T14:55:55;22.50;56.30
49184;DHT22;35021;49.214;12.270;2023-06-10T14:58:22;22.50;56.20
49184;DHT22;35021;49.214;12.270;2023-06-10T15:00:49;22.50;56.10
49184;DHT22;35021;49.214;12.270;2023-06-10T15:03:17;22.50;56.20
49184;DHT22;35021;49.214;12.270;2023-06-10T15:05:43;22.50;56.20
49184;DHT22;35021;49.214;12.270;2023-06-10T15:08:11;22.50;56.20
49184;DHT22;35021;49.214;12.270;2023-06-10T15:10:38;22.50;56.20
49184;DHT22;35021;49.214;12.270;2023-06-10T15:13:05;22.50;56.20
49184;DHT22;35021;49.214;12.270;2023-06-10T15:15:32;22.50;56.20
49184;DHT22;35021;49.214;12.270;2023-06-10T15:17:58;22.50;56.10
49184;DHT22;35021;49.214;12.270;2023-06-10T15:20:25;22.50;56.10
49184;DHT22;35021;49.214;12.270;2023-06-10T15:22:52;22.50;56.00
49184;DHT22;35021;49.214;12.270;2023-06-10T15:25:20;22.50;56.10
49184;DHT22;35021;49.214;12.270;2023-06-10T15:27:57;22.60;56.10
49184;DHT22;35021;49.214;12.270;2023-06-10T15:30:24;22.60;56.00
49184;DHT22;35021;49.214;12.270;2023-06-10T15:32:51;22.60;56.00